sensor_id;sensor_type;location;lat;lon;timestamp;temperature;humidity
68511;SHT31;55512;50.102;19.958;2022-10-26T00:01:05;13.36;74.20
68511;SHT31;55512;50.102;19.958;2022-10-26T00:03:34;13.34;74.26
68511;SHT31;55512;50.102;19.958;2022-10-26T00:06:11;13.32;74.31
68511;SHT31;55512;50.102;19.958;2022-10-26T00:08:43;13.32;74.35
68511;SHT31;55512;50.102;19.958;2022-10-26T00:11:10;13.31;74.30
68511;SHT31;55512;50.102;19.958;2022-10-26T00:13:37;13.31;74.30
68511;SHT31;55512;50.102;19.958;2022-10-26T00:16:14;13.26;74.34
68511;SHT31;55512;50.102;19.958;2022-10-26T00:18:45;13.24;74.31
68511;SHT31;55512;50.102;19.958;2022-10-26T00:21:11;13.21;74.35
68511;SHT31;55512;50.102;19.958;2022-10-26T00:23:37;13.18;74.40
68511;SHT31;55512;50.102;19.958;2022-10-26T00:26:03;13.15;74.48
68511;SHT31;55512;50.102;19.958;2022-10-26T00:28:30;13.15;74.50
68511;SHT31;55512;50.102;19.958;2022-10-26T00:31:00;13.13;74.50
68511;SHT31;55512;50.102;19.958;2022-10-26T00:33:27;13.11;74.48
68511;SHT31;55512;50.102;19.958;2022-10-26T00:35:54;13.11;74.50
68511;SHT31;55512;50.102;19.958;2022-10-26T00:38:20;13.09;74.51
68511;SHT31;55512;50.102;19.958;2022-10-26T00:40:45;13.09;74.50
68511;SHT31;55512;50.102;19.958;2022-10-26T00:43:15;13.06;74.53
68511;SHT31;55512;50.102;19.958;2022-10-26T00:46:03;13.01;74.68
68511;SHT31;55512;50.102;19.958;2022-10-26T00:48:35;12.95;74.79
68511;SHT31;55512;50.102;19.958;2022-10-26T00:51:08;12.92;74.90
68511;SHT31;55512;50.102;19.958;2022-10-26T00:54:06;12.87;75.05
68511;SHT31;55512;50.102;19.958;2022-10-26T00:56:37;12.82;75.12
68511;SHT31;55512;50.102;19.958;2022-10-26T00:59:05;12.81;75.20
68511;SHT31;55512;50.102;19.958;2022-10-26T01:01:36;12.82;75.22
68511;SHT31;55512;50.102;19.958;2022-10-26T01:04:06;12.81;75.30
68511;SHT31;55512;50.102;19.958;2022-10-26T01:06:32;12.81;75.30
68511;SHT31;55512;50.102;19.958;2022-10-26T01:09:01;12.82;75.30
68511;SHT31;55512;50.102;19.958;2022-10-26T01:11:28;12.84;75.31
68511;SHT31;55512;50.102;19.958;2022-10-26T01:13:54;12.82;75.39
68511;SHT31;55512;50.102;19.958;2022-10-26T01:19:07;12.82;75.52
68511;SHT31;55512;50.102;19.958;2022-10-26T01:27:59;12.82;75.73
68511;SHT31;55512;50.102;19.958;2022-10-26T01:30:39;12.82;75.80
68511;SHT31;55512;50.102;19.958;2022-10-26T01:38:46;12.81;75.91
68511;SHT31;55512;50.102;19.958;2022-10-26T01:41:27;12.80;76.00
68511;SHT31;55512;50.102;19.958;2022-10-26T01:46:41;12.80;76.00
68511;SHT31;55512;50.102;19.958;2022-10-26T01:49:13;12.80;76.00
68511;SHT31;55512;50.102;19.958;2022-10-26T01:51:45;12.78;76.09
68511;SHT31;55512;50.102;19.958;2022-10-26T01:54:13;12.75;76.10
68511;SHT31;55512;50.102;19.958;2022-10-26T01:56:39;12.75;76.09
68511;SHT31;55512;50.102;19.958;2022-10-26T01:59:21;12.76;76.03
68511;SHT31;55512;50.102;19.958;2022-10-26T02:04:50;12.75;76.00
68511;SHT31;55512;50.102;19.958;2022-10-26T02:16:56;12.48;76.79
68511;SHT31;55512;50.102;19.958;2022-10-26T02:19:46;12.47;76.80
68511;SHT31;55512;50.102;19.958;2022-10-26T02:22:24;12.44;76.80
68511;SHT31;55512;50.102;19.958;2022-10-26T02:24:55;12.43;76.80
68511;SHT31;55512;50.102;19.958;2022-10-26T02:27:30;12.43;76.80
68511;SHT31;55512;50.102;19.958;2022-10-26T02:30:02;12.40;76.81
68511;SHT31;55512;50.102;19.958;2022-10-26T02:32:30;12.39;76.87
68511;SHT31;55512;50.102;19.958;2022-10-26T02:35:01;12.39;76.80
68511;SHT31;55512;50.102;19.958;2022-10-26T02:37:29;12.38;76.80
68511;SHT31;55512;50.102;19.958;2022-10-26T02:39:59;12.36;76.80
68511;SHT31;55512;50.102;19.958;2022-10-26T02:42:33;12.32;76.87
68511;SHT31;55512;50.102;19.958;2022-10-26T02:45:04;12.28;76.93
68511;SHT31;55512;50.102;19.958;2022-10-26T02:47:35;12.27;76.98
68511;SHT31;55512;50.102;19.958;2022-10-26T02:50:00;12.26;77.00
68511;SHT31;55512;50.102;19.958;2022-10-26T02:55:10;12.23;77.10
68511;SHT31;55512;50.102;19.958;2022-10-26T02:57:46;12.24;77.10
68511;SHT31;55512;50.102;19.958;2022-10-26T03:00:21;12.22;77.16
68511;SHT31;55512;50.102;19.958;2022-10-26T03:02:53;12.19;77.20
68511;SHT31;55512;50.102;19.958;2022-10-26T03:05:24;12.18;77.22
68511;SHT31;55512;50.102;19.958;2022-10-26T03:07:53;12.17;77.29
68511;SHT31;55512;50.102;19.958;2022-10-26T03:10:20;12.15;77.30
68511;SHT31;55512;50.102;19.958;2022-10-26T03:12:46;12.12;77.43
68511;SHT31;55512;50.102;19.958;2022-10-26T03:15:12;12.09;77.50
68511;SHT31;55512;50.102;19.958;2022-10-26T03:17:37;12.07;77.50
68511;SHT31;55512;50.102;19.958;2022-10-26T03:20:03;12.05;77.50
68511;SHT31;55512;50.102;19.958;2022-10-26T03:22:29;12.02;77.50
68511;SHT31;55512;50.102;19.958;2022-10-26T03:24:55;11.99;77.51
68511;SHT31;55512;50.102;19.958;2022-10-26T03:27:20;11.96;77.60
68511;SHT31;55512;50.102;19.958;2022-10-26T03:29:47;11.92;77.70
68511;SHT31;55512;50.102;19.958;2022-10-26T03:32:12;11.90;77.70
68511;SHT31;55512;50.102;19.958;2022-10-26T03:34:38;11.89;77.69
68511;SHT31;55512;50.102;19.958;2022-10-26T03:37:03;11.86;77.70
68511;SHT31;55512;50.102;19.958;2022-10-26T03:39:28;11.84;77.70
68511;SHT31;55512;50.102;19.958;2022-10-26T03:41:54;11.81;77.70
68511;SHT31;55512;50.102;19.958;2022-10-26T03:44:20;11.77;77.70
68511;SHT31;55512;50.102;19.958;2022-10-26T03:46:46;11.71;77.80
68511;SHT31;55512;50.102;19.958;2022-10-26T03:49:12;11.70;77.81
68511;SHT31;55512;50.102;19.958;2022-10-26T03:51:37;11.68;77.88
68511;SHT31;55512;50.102;19.958;2022-10-26T03:54:03;11.67;77.85
68511;SHT31;55512;50.102;19.958;2022-10-26T03:56:29;11.66;77.86
68511;SHT31;55512;50.102;19.958;2022-10-26T03:58:54;11.66;77.64
68511;SHT31;55512;50.102;19.958;2022-10-26T04:01:19;11.64;77.69
68511;SHT31;55512;50.102;19.958;2022-10-26T04:03:45;11.64;77.74
68511;SHT31;55512;50.102;19.958;2022-10-26T04:06:10;11.63;77.80
68511;SHT31;55512;50.102;19.958;2022-10-26T04:08:36;11.61;77.80
68511;SHT31;55512;50.102;19.958;2022-10-26T04:11:01;11.59;77.80
68511;SHT31;55512;50.102;19.958;2022-10-26T04:13:27;11.59;77.80
68511;SHT31;55512;50.102;19.958;2022-10-26T04:15:52;11.59;77.84
68511;SHT31;55512;50.102;19.958;2022-10-26T04:18:18;11.56;77.83
68511;SHT31;55512;50.102;19.958;2022-10-26T04:20:43;11.52;77.90
68511;SHT31;55512;50.102;19.958;2022-10-26T04:23:10;11.48;77.94
68511;SHT31;55512;50.102;19.958;2022-10-26T04:25:39;11.47;78.01
68511;SHT31;55512;50.102;19.958;2022-10-26T04:28:05;11.44;78.02
68511;SHT31;55512;50.102;19.958;2022-10-26T04:30:33;11.41;78.07
68511;SHT31;55512;50.102;19.958;2022-10-26T04:32:59;11.39;78.09
68511;SHT31;55512;50.102;19.958;2022-10-26T04:35:25;11.37;78.10
68511;SHT31;55512;50.102;19.958;2022-10-26T04:37:56;11.37;78.10
68511;SHT31;55512;50.102;19.958;2022-10-26T04:40:26;11.36;78.10
68511;SHT31;55512;50.102;19.958;2022-10-26T04:42:53;11.34;78.10
68511;SHT31;55512;50.102;19.958;2022-10-26T04:45:18;11.33;78.15
68511;SHT31;55512;50.102;19.958;2022-10-26T04:47:44;11.31;78.18
68511;SHT31;55512;50.102;19.958;2022-10-26T04:50:10;11.30;78.28
68511;SHT31;55512;50.102;19.958;2022-10-26T04:52:39;11.29;78.30
68511;SHT31;55512;50.102;19.958;2022-10-26T04:55:05;11.29;78.30
68511;SHT31;55512;50.102;19.958;2022-10-26T04:57:32;11.27;78.30
68511;SHT31;55512;50.102;19.958;2022-10-26T04:59:59;11.25;78.38
68511;SHT31;55512;50.102;19.958;2022-10-26T05:02:26;11.25;78.47
68511;SHT31;55512;50.102;19.958;2022-10-26T05:04:52;11.24;78.50
68511;SHT31;55512;50.102;19.958;2022-10-26T05:07:18;11.22;78.50
68511;SHT31;55512;50.102;19.958;2022-10-26T05:09:44;11.22;78.50
68511;SHT31;55512;50.102;19.958;2022-10-26T05:12:09;11.21;78.50
68511;SHT31;55512;50.102;19.958;2022-10-26T05:14:34;11.19;78.50
68511;SHT31;55512;50.102;19.958;2022-10-26T05:17:00;11.19;78.54
68511;SHT31;55512;50.102;19.958;2022-10-26T05:19:25;11.18;78.63
68511;SHT31;55512;50.102;19.958;2022-10-26T05:21:51;11.17;78.70
68511;SHT31;55512;50.102;19.958;2022-10-26T05:24:19;11.18;78.70
68511;SHT31;55512;50.102;19.958;2022-10-26T05:26:44;11.18;78.70
68511;SHT31;55512;50.102;19.958;2022-10-26T05:29:10;11.19;78.67
68511;SHT31;55512;50.102;19.958;2022-10-26T05:31:35;11.18;78.64
68511;SHT31;55512;50.102;19.958;2022-10-26T05:34:00;11.19;78.62
68511;SHT31;55512;50.102;19.958;2022-10-26T05:36:26;11.19;78.60
68511;SHT31;55512;50.102;19.958;2022-10-26T05:38:51;11.18;78.59
68511;SHT31;55512;50.102;19.958;2022-10-26T05:41:17;11.18;78.60
68511;SHT31;55512;50.102;19.958;2022-10-26T05:43:42;11.18;78.66
68511;SHT31;55512;50.102;19.958;2022-10-26T05:46:07;11.20;78.69
68511;SHT31;55512;50.102;19.958;2022-10-26T05:48:33;11.20;78.70
68511;SHT31;55512;50.102;19.958;2022-10-26T05:50:59;11.21;78.73
68511;SHT31;55512;50.102;19.958;2022-10-26T05:53:25;11.22;78.78
68511;SHT31;55512;50.102;19.958;2022-10-26T05:55:51;11.23;78.70
68511;SHT31;55512;50.102;19.958;2022-10-26T05:58:18;11.22;78.70
68511;SHT31;55512;50.102;19.958;2022-10-26T06:00:51;11.23;78.68
68511;SHT31;55512;50.102;19.958;2022-10-26T06:03:59;11.26;78.59
68511;SHT31;55512;50.102;19.958;2022-10-26T06:06:55;11.25;78.31
68511;SHT31;55512;50.102;19.958;2022-10-26T06:09:23;11.25;78.22
68511;SHT31;55512;50.102;19.958;2022-10-26T06:11:49;11.24;78.15
68511;SHT31;55512;50.102;19.958;2022-10-26T06:14:15;11.23;78.02
68511;SHT31;55512;50.102;19.958;2022-10-26T06:16:47;11.25;78.06
68511;SHT31;55512;50.102;19.958;2022-10-26T06:30:57;11.38;78.38
68511;SHT31;55512;50.102;19.958;2022-10-26T06:33:23;11.41;78.37
68511;SHT31;55512;50.102;19.958;2022-10-26T06:35:53;11.45;78.30
68511;SHT31;55512;50.102;19.958;2022-10-26T06:38:33;11.46;78.30
68511;SHT31;55512;50.102;19.958;2022-10-26T06:41:00;11.49;78.27
68511;SHT31;55512;50.102;19.958;2022-10-26T06:43:30;11.53;78.30
68511;SHT31;55512;50.102;19.958;2022-10-26T06:49:15;11.58;78.20
68511;SHT31;55512;50.102;19.958;2022-10-26T06:51:56;11.63;78.20
68511;SHT31;55512;50.102;19.958;2022-10-26T06:54:51;11.68;78.20
68511;SHT31;55512;50.102;19.958;2022-10-26T06:57:26;11.71;78.21
68511;SHT31;55512;50.102;19.958;2022-10-26T07:00:03;11.74;78.20
68511;SHT31;55512;50.102;19.958;2022-10-26T07:02:42;11.79;78.20
68511;SHT31;55512;50.102;19.958;2022-10-26T07:05:08;11.85;78.20
68511;SHT31;55512;50.102;19.958;2022-10-26T07:07:37;11.90;78.20
68511;SHT31;55512;50.102;19.958;2022-10-26T07:10:09;11.97;78.19
68511;SHT31;55512;50.102;19.958;2022-10-26T07:12:37;12.02;78.10
68511;SHT31;55512;50.102;19.958;2022-10-26T07:15:03;12.08;78.07
68511;SHT31;55512;50.102;19.958;2022-10-26T07:17:30;12.12;78.01
68511;SHT31;55512;50.102;19.958;2022-10-26T07:19:56;12.17;77.98
68511;SHT31;55512;50.102;19.958;2022-10-26T07:22:22;12.24;77.91
68511;SHT31;55512;50.102;19.958;2022-10-26T07:24:49;12.31;77.82
68511;SHT31;55512;50.102;19.958;2022-10-26T07:27:16;12.38;77.76
68511;SHT31;55512;50.102;19.958;2022-10-26T07:29:45;12.42;77.68
68511;SHT31;55512;50.102;19.958;2022-10-26T07:32:10;12.47;77.60
68511;SHT31;55512;50.102;19.958;2022-10-26T07:34:35;12.52;77.57
68511;SHT31;55512;50.102;19.958;2022-10-26T07:37:01;12.57;77.50
68511;SHT31;55512;50.102;19.958;2022-10-26T07:39:26;12.63;77.50
68511;SHT31;55512;50.102;19.958;2022-10-26T07:41:52;12.68;77.43
68511;SHT31;55512;50.102;19.958;2022-10-26T07:44:18;12.74;77.36
68511;SHT31;55512;50.102;19.958;2022-10-26T07:46:43;12.80;77.30
68511;SHT31;55512;50.102;19.958;2022-10-26T07:49:09;12.86;77.26
68511;SHT31;55512;50.102;19.958;2022-10-26T07:51:35;12.91;77.20
68511;SHT31;55512;50.102;19.958;2022-10-26T07:54:01;12.96;77.20
68511;SHT31;55512;50.102;19.958;2022-10-26T07:56:27;13.02;77.12
68511;SHT31;55512;50.102;19.958;2022-10-26T07:58:53;13.08;77.08
68511;SHT31;55512;50.102;19.958;2022-10-26T08:01:19;13.13;77.04
68511;SHT31;55512;50.102;19.958;2022-10-26T08:03:45;13.18;77.00
68511;SHT31;55512;50.102;19.958;2022-10-26T08:06:11;13.24;76.96
68511;SHT31;55512;50.102;19.958;2022-10-26T08:08:37;13.32;76.90
68511;SHT31;55512;50.102;19.958;2022-10-26T08:11:02;13.37;76.90
68511;SHT31;55512;50.102;19.958;2022-10-26T08:13:29;13.43;76.82
68511;SHT31;55512;50.102;19.958;2022-10-26T08:15:59;13.51;76.70
68511;SHT31;55512;50.102;19.958;2022-10-26T08:18:28;13.56;76.60
68511;SHT31;55512;50.102;19.958;2022-10-26T08:20:54;13.62;76.50
68511;SHT31;55512;50.102;19.958;2022-10-26T08:23:20;13.68;76.47
68511;SHT31;55512;50.102;19.958;2022-10-26T08:25:46;13.74;76.39
68511;SHT31;55512;50.102;19.958;2022-10-26T08:28:12;13.83;76.39
68511;SHT31;55512;50.102;19.958;2022-10-26T08:30:38;13.90;76.28
68511;SHT31;55512;50.102;19.958;2022-10-26T08:33:04;13.95;76.14
68511;SHT31;55512;50.102;19.958;2022-10-26T08:35:32;14.01;75.93
68511;SHT31;55512;50.102;19.958;2022-10-26T08:37:58;14.09;75.54
68511;SHT31;55512;50.102;19.958;2022-10-26T08:40:25;14.16;75.46
68511;SHT31;55512;50.102;19.958;2022-10-26T08:43:03;14.21;75.26
68511;SHT31;55512;50.102;19.958;2022-10-26T08:45:40;14.27;75.05
68511;SHT31;55512;50.102;19.958;2022-10-26T08:48:19;14.36;74.90
68511;SHT31;55512;50.102;19.958;2022-10-26T08:50:57;14.43;74.64
68511;SHT31;55512;50.102;19.958;2022-10-26T08:53:59;14.50;74.43
68511;SHT31;55512;50.102;19.958;2022-10-26T08:56:45;14.57;74.31
68511;SHT31;55512;50.102;19.958;2022-10-26T09:02:00;14.69;73.79
68511;SHT31;55512;50.102;19.958;2022-10-26T09:04:27;14.76;73.62
68511;SHT31;55512;50.102;19.958;2022-10-26T09:07:03;14.84;73.53
68511;SHT31;55512;50.102;19.958;2022-10-26T09:18:22;15.16;73.07
68511;SHT31;55512;50.102;19.958;2022-10-26T09:21:40;15.23;72.69
68511;SHT31;55512;50.102;19.958;2022-10-26T09:25:15;15.29;72.35
68511;SHT31;55512;50.102;19.958;2022-10-26T09:29:51;15.43;72.33
68511;SHT31;55512;50.102;19.958;2022-10-26T09:32:22;15.52;72.14
68511;SHT31;55512;50.102;19.958;2022-10-26T09:34:58;15.58;71.85
68511;SHT31;55512;50.102;19.958;2022-10-26T09:37:35;15.63;71.47
68511;SHT31;55512;50.102;19.958;2022-10-26T09:40:08;15.67;71.11
68511;SHT31;55512;50.102;19.958;2022-10-26T09:45:30;15.80;70.77
68511;SHT31;55512;50.102;19.958;2022-10-26T09:48:04;15.85;70.68
68511;SHT31;55512;50.102;19.958;2022-10-26T09:50:47;15.92;70.44
68511;SHT31;55512;50.102;19.958;2022-10-26T09:53:15;15.99;70.06
68511;SHT31;55512;50.102;19.958;2022-10-26T09:55:49;16.05;69.86
68511;SHT31;55512;50.102;19.958;2022-10-26T09:58:28;16.14;69.68
68511;SHT31;55512;50.102;19.958;2022-10-26T10:01:06;16.23;69.16
68511;SHT31;55512;50.102;19.958;2022-10-26T10:03:46;16.27;68.90
68511;SHT31;55512;50.102;19.958;2022-10-26T10:11:45;16.45;68.49
68511;SHT31;55512;50.102;19.958;2022-10-26T10:14:21;16.55;68.26
68511;SHT31;55512;50.102;19.958;2022-10-26T10:17:03;16.62;67.94
68511;SHT31;55512;50.102;19.958;2022-10-26T10:19:35;16.71;67.69
68511;SHT31;55512;50.102;19.958;2022-10-26T10:24:51;16.84;67.16
68511;SHT31;55512;50.102;19.958;2022-10-26T10:27:17;16.90;67.04
68511;SHT31;55512;50.102;19.958;2022-10-26T10:29:44;16.96;66.85
68511;SHT31;55512;50.102;19.958;2022-10-26T10:32:15;17.01;66.61
68511;SHT31;55512;50.102;19.958;2022-10-26T10:34:53;17.05;66.36
68511;SHT31;55512;50.102;19.958;2022-10-26T10:37:23;17.07;66.20
68511;SHT31;55512;50.102;19.958;2022-10-26T10:39:59;17.13;66.16
68511;SHT31;55512;50.102;19.958;2022-10-26T10:42:47;17.19;65.73
68511;SHT31;55512;50.102;19.958;2022-10-26T10:45:21;17.24;65.51
68511;SHT31;55512;50.102;19.958;2022-10-26T10:47:58;17.27;65.46
68511;SHT31;55512;50.102;19.958;2022-10-26T10:50:26;17.32;65.50
68511;SHT31;55512;50.102;19.958;2022-10-26T10:53:11;17.38;65.32
68511;SHT31;55512;50.102;19.958;2022-10-26T10:55:41;17.44;65.13
68511;SHT31;55512;50.102;19.958;2022-10-26T10:58:26;17.49;64.96
68511;SHT31;55512;50.102;19.958;2022-10-26T11:01:16;17.54;64.93
68511;SHT31;55512;50.102;19.958;2022-10-26T11:07:02;17.66;64.50
68511;SHT31;55512;50.102;19.958;2022-10-26T11:09:32;17.71;64.36
68511;SHT31;55512;50.102;19.958;2022-10-26T11:15:20;17.83;64.24
68511;SHT31;55512;50.102;19.958;2022-10-26T11:18:01;17.90;64.13
68511;SHT31;55512;50.102;19.958;2022-10-26T11:20:38;17.96;64.10
68511;SHT31;55512;50.102;19.958;2022-10-26T11:26:03;18.14;63.87
68511;SHT31;55512;50.102;19.958;2022-10-26T11:28:49;18.24;63.49
68511;SHT31;55512;50.102;19.958;2022-10-26T11:31:40;18.31;63.06
68511;SHT31;55512;50.102;19.958;2022-10-26T11:34:28;18.35;61.75
68511;SHT31;55512;50.102;19.958;2022-10-26T11:37:02;18.43;61.82
68511;SHT31;55512;50.102;19.958;2022-10-26T11:39:40;18.53;62.04
68511;SHT31;55512;50.102;19.958;2022-10-26T11:42:14;18.62;61.54
68511;SHT31;55512;50.102;19.958;2022-10-26T11:45:11;18.72;61.39
68511;SHT31;55512;50.102;19.958;2022-10-26T11:47:50;18.82;61.19
68511;SHT31;55512;50.102;19.958;2022-10-26T11:50:33;18.95;60.80
68511;SHT31;55512;50.102;19.958;2022-10-26T11:53:11;19.02;60.89
68511;SHT31;55512;50.102;19.958;2022-10-26T11:55:41;19.11;60.53
68511;SHT31;55512;50.102;19.958;2022-10-26T11:58:13;19.21;60.04
68511;SHT31;55512;50.102;19.958;2022-10-26T12:00:48;19.29;59.93
68511;SHT31;55512;50.102;19.958;2022-10-26T12:03:19;19.40;59.54
68511;SHT31;55512;50.102;19.958;2022-10-26T12:05:53;19.48;58.51
68511;SHT31;55512;50.102;19.958;2022-10-26T12:08:23;19.54;58.48
68511;SHT31;55512;50.102;19.958;2022-10-26T12:11:42;19.59;58.13
68511;SHT31;55512;50.102;19.958;2022-10-26T12:14:16;19.68;57.77
68511;SHT31;55512;50.102;19.958;2022-10-26T12:22:13;19.96;56.94
68511;SHT31;55512;50.102;19.958;2022-10-26T12:24:43;20.03;56.28
68511;SHT31;55512;50.102;19.958;2022-10-26T12:48:40;19.95;54.84
68511;SHT31;55512;50.102;19.958;2022-10-26T12:51:39;19.92;54.90
68511;SHT31;55512;50.102;19.958;2022-10-26T12:56:36;19.89;54.49
68511;SHT31;55512;50.102;19.958;2022-10-26T13:08:23;19.56;54.04
68511;SHT31;55512;50.102;19.958;2022-10-26T13:10:59;19.50;53.72
68511;SHT31;55512;50.102;19.958;2022-10-26T13:13:29;19.46;53.66
68511;SHT31;55512;50.102;19.958;2022-10-26T13:15:57;19.46;53.46
68511;SHT31;55512;50.102;19.958;2022-10-26T13:18:25;19.47;53.35
68511;SHT31;55512;50.102;19.958;2022-10-26T13:26:19;19.54;52.85
68511;SHT31;55512;50.102;19.958;2022-10-26T13:28:55;19.57;52.19
68511;SHT31;55512;50.102;19.958;2022-10-26T13:34:08;19.73;52.12
68511;SHT31;55512;50.102;19.958;2022-10-26T13:36:46;19.85;51.77
68511;SHT31;55512;50.102;19.958;2022-10-26T13:39:34;19.96;51.50
68511;SHT31;55512;50.102;19.958;2022-10-26T13:42:05;20.08;51.10
68511;SHT31;55512;50.102;19.958;2022-10-26T13:44:38;20.17;50.47
68511;SHT31;55512;50.102;19.958;2022-10-26T13:47:16;20.25;50.39
68511;SHT31;55512;50.102;19.958;2022-10-26T13:49:53;20.34;50.21
68511;SHT31;55512;50.102;19.958;2022-10-26T13:52:34;20.45;50.14
68511;SHT31;55512;50.102;19.958;2022-10-26T13:58:08;20.85;49.88
68511;SHT31;55512;50.102;19.958;2022-10-26T14:03:45;23.11;46.81
68511;SHT31;55512;50.102;19.958;2022-10-26T14:06:20;25.28;44.62
68511;SHT31;55512;50.102;19.958;2022-10-26T14:09:00;27.55;41.76
68511;SHT31;55512;50.102;19.958;2022-10-26T14:11:42;29.24;40.04
68511;SHT31;55512;50.102;19.958;2022-10-26T14:14:18;30.95;38.25
68511;SHT31;55512;50.102;19.958;2022-10-26T14:16:49;32.29;36.51
68511;SHT31;55512;50.102;19.958;2022-10-26T14:19:25;33.38;34.96
68511;SHT31;55512;50.102;19.958;2022-10-26T14:21:54;34.32;33.62
68511;SHT31;55512;50.102;19.958;2022-10-26T14:24:28;35.11;32.40
68511;SHT31;55512;50.102;19.958;2022-10-26T14:26:57;35.77;31.54
68511;SHT31;55512;50.102;19.958;2022-10-26T14:29:23;36.33;30.56
68511;SHT31;55512;50.102;19.958;2022-10-26T14:31:55;36.83;29.77
68511;SHT31;55512;50.102;19.958;2022-10-26T14:34:21;37.20;28.64
68511;SHT31;55512;50.102;19.958;2022-10-26T14:44:56;37.62;26.85
68511;SHT31;55512;50.102;19.958;2022-10-26T14:47:24;37.27;26.65
68511;SHT31;55512;50.102;19.958;2022-10-26T14:49:53;36.66;26.60
68511;SHT31;55512;50.102;19.958;2022-10-26T14:52:30;35.76;26.94
68511;SHT31;55512;50.102;19.958;2022-10-26T14:55:04;35.10;27.24
68511;SHT31;55512;50.102;19.958;2022-10-26T14:57:41;34.72;27.41
68511;SHT31;55512;50.102;19.958;2022-10-26T15:00:17;33.97;27.84
68511;SHT31;55512;50.102;19.958;2022-10-26T15:02:50;32.67;28.43
68511;SHT31;55512;50.102;19.958;2022-10-26T15:07:47;30.20;30.07
68511;SHT31;55512;50.102;19.958;2022-10-26T15:18:43;26.27;33.67
68511;SHT31;55512;50.102;19.958;2022-10-26T15:23:55;24.80;35.69
68511;SHT31;55512;50.102;19.958;2022-10-26T15:26:22;24.27;36.30
68511;SHT31;55512;50.102;19.958;2022-10-26T15:28:49;23.83;36.84
68511;SHT31;55512;50.102;19.958;2022-10-26T15:36:17;22.67;38.77
68511;SHT31;55512;50.102;19.958;2022-10-26T15:38:46;22.33;39.39
68511;SHT31;55512;50.102;19.958;2022-10-26T15:41:17;22.01;40.17
68511;SHT31;55512;50.102;19.958;2022-10-26T15:43:53;21.65;41.07
68511;SHT31;55512;50.102;19.958;2022-10-26T15:46:22;21.25;41.76
68511;SHT31;55512;50.102;19.958;2022-10-26T15:48:53;20.91;42.44
68511;SHT31;55512;50.102;19.958;2022-10-26T15:51:21;20.61;43.00
68511;SHT31;55512;50.102;19.958;2022-10-26T15:53:47;20.36;43.47
68511;SHT31;55512;50.102;19.958;2022-10-26T15:56:17;20.17;43.92
68511;SHT31;55512;50.102;19.958;2022-10-26T15:58:47;19.96;44.35
68511;SHT31;55512;50.102;19.958;2022-10-26T16:01:14;19.81;44.75
68511;SHT31;55512;50.102;19.958;2022-10-26T16:03:42;19.62;45.32
68511;SHT31;55512;50.102;19.958;2022-10-26T16:06:42;19.45;45.88
68511;SHT31;55512;50.102;19.958;2022-10-26T16:09:03;19.21;46.46
68511;SHT31;55512;50.102;19.958;2022-10-26T16:11:33;19.01;46.84
68511;SHT31;55512;50.102;19.958;2022-10-26T16:13:59;18.80;47.24
68511;SHT31;55512;50.102;19.958;2022-10-26T16:16:24;18.62;47.63
68511;SHT31;55512;50.102;19.958;2022-10-26T16:18:53;18.45;48.01
68511;SHT31;55512;50.102;19.958;2022-10-26T16:21:20;18.30;48.44
68511;SHT31;55512;50.102;19.958;2022-10-26T16:23:48;18.13;48.76
68511;SHT31;55512;50.102;19.958;2022-10-26T16:26:17;17.99;49.11
68511;SHT31;55512;50.102;19.958;2022-10-26T16:28:44;17.86;49.48
68511;SHT31;55512;50.102;19.958;2022-10-26T16:31:11;17.77;49.96
68511;SHT31;55512;50.102;19.958;2022-10-26T16:33:42;17.65;50.47
68511;SHT31;55512;50.102;19.958;2022-10-26T16:36:09;17.51;50.76
68511;SHT31;55512;50.102;19.958;2022-10-26T16:38:36;17.39;51.08
68511;SHT31;55512;50.102;19.958;2022-10-26T16:41:10;17.25;51.41
68511;SHT31;55512;50.102;19.958;2022-10-26T16:43:42;17.13;51.69
68511;SHT31;55512;50.102;19.958;2022-10-26T16:46:13;17.02;52.19
68511;SHT31;55512;50.102;19.958;2022-10-26T16:48:45;16.87;52.71
68511;SHT31;55512;50.102;19.958;2022-10-26T16:51:14;16.71;53.04
68511;SHT31;55512;50.102;19.958;2022-10-26T16:53:47;16.59;53.32
68511;SHT31;55512;50.102;19.958;2022-10-26T16:56:17;16.46;53.67
68511;SHT31;55512;50.102;19.958;2022-10-26T16:58:45;16.36;53.95
68511;SHT31;55512;50.102;19.958;2022-10-26T17:01:11;16.26;54.14
68511;SHT31;55512;50.102;19.958;2022-10-26T17:03:43;16.19;54.41
68511;SHT31;55512;50.102;19.958;2022-10-26T17:06:09;16.10;54.63
68511;SHT31;55512;50.102;19.958;2022-10-26T17:08:35;16.03;54.89
68511;SHT31;55512;50.102;19.958;2022-10-26T17:11:02;15.94;55.17
68511;SHT31;55512;50.102;19.958;2022-10-26T17:13:36;15.84;55.49
68511;SHT31;55512;50.102;19.958;2022-10-26T17:16:09;15.77;55.67
68511;SHT31;55512;50.102;19.958;2022-10-26T17:18:44;15.70;55.84
68511;SHT31;55512;50.102;19.958;2022-10-26T17:21:12;15.61;56.01
68511;SHT31;55512;50.102;19.958;2022-10-26T17:23:39;15.51;56.29
68511;SHT31;55512;50.102;19.958;2022-10-26T17:26:05;15.42;56.54
68511;SHT31;55512;50.102;19.958;2022-10-26T17:28:34;15.35;56.76
68511;SHT31;55512;50.102;19.958;2022-10-26T17:31:01;15.24;57.08
68511;SHT31;55512;50.102;19.958;2022-10-26T17:33:37;15.18;57.31
68511;SHT31;55512;50.102;19.958;2022-10-26T17:36:06;15.14;57.53
68511;SHT31;55512;50.102;19.958;2022-10-26T17:38:35;15.07;57.72
68511;SHT31;55512;50.102;19.958;2022-10-26T17:41:04;15.02;57.88
68511;SHT31;55512;50.102;19.958;2022-10-26T17:43:33;14.98;58.03
68511;SHT31;55512;50.102;19.958;2022-10-26T17:46:02;14.95;58.18
68511;SHT31;55512;50.102;19.958;2022-10-26T17:48:30;14.90;58.23
68511;SHT31;55512;50.102;19.958;2022-10-26T17:50:57;14.85;58.42
68511;SHT31;55512;50.102;19.958;2022-10-26T17:53:28;14.81;58.57
68511;SHT31;55512;50.102;19.958;2022-10-26T17:56:04;14.77;58.73
68511;SHT31;55512;50.102;19.958;2022-10-26T17:58:32;14.71;58.92
68511;SHT31;55512;50.102;19.958;2022-10-26T18:01:00;14.65;59.20
68511;SHT31;55512;50.102;19.958;2022-10-26T18:03:29;14.59;59.40
68511;SHT31;55512;50.102;19.958;2022-10-26T18:05:54;14.53;59.62
68511;SHT31;55512;50.102;19.958;2022-10-26T18:08:20;14.50;59.77
68511;SHT31;55512;50.102;19.958;2022-10-26T18:10:49;14.46;59.91
68511;SHT31;55512;50.102;19.958;2022-10-26T18:13:19;14.44;60.05
68511;SHT31;55512;50.102;19.958;2022-10-26T18:15:45;14.40;60.10
68511;SHT31;55512;50.102;19.958;2022-10-26T18:18:12;14.33;60.23
68511;SHT31;55512;50.102;19.958;2022-10-26T18:20:37;14.28;60.39